sensor_id;sensor_type;location;lat;lon;timestamp;P1;durP1;ratioP1;P2;durP2;ratioP2
82705;SDS011;72428;41.978;21.464;2023-11-19T00:01:23;5.50;;;2.20;;
82705;SDS011;72428;41.978;21.464;2023-11-19T00:03:49;3.45;;;2.13;;
82705;SDS011;72428;41.978;21.464;2023-11-19T00:06:15;3.53;;;1.90;;
82705;SDS011;72428;41.978;21.464;2023-11-19T00:08:42;3.95;;;2.13;;
82705;SDS011;72428;41.978;21.464;2023-11-19T00:11:11;5.22;;;2.75;;
82705;SDS011;72428;41.978;21.464;2023-11-19T00:13:40;3.58;;;2.58;;
82705;SDS011;72428;41.978;21.464;2023-11-19T00:16:07;2.58;;;1.73;;
82705;SDS011;72428;41.978;21.464;2023-11-19T00:18:34;4.93;;;2.38;;
82705;SDS011;72428;41.978;21.464;2023-11-19T00:21:01;4.70;;;3.67;;
82705;SDS011;72428;41.978;21.464;2023-11-19T00:23:27;3.78;;;2.28;;
82705;SDS011;72428;41.978;21.464;2023-11-19T00:25:53;4.10;;;2.30;;
82705;SDS011;72428;41.978;21.464;2023-11-19T00:28:19;3.15;;;2.42;;
82705;SDS011;72428;41.978;21.464;2023-11-19T00:30:45;3.88;;;2.35;;
82705;SDS011;72428;41.978;21.464;2023-11-19T00:33:12;3.45;;;2.42;;
82705;SDS011;72428;41.978;21.464;2023-11-19T00:35:38;4.53;;;3.03;;
82705;SDS011;72428;41.978;21.464;2023-11-19T00:38:04;4.82;;;3.17;;
82705;SDS011;72428;41.978;21.464;2023-11-19T00:40:30;3.63;;;2.35;;
82705;SDS011;72428;41.978;21.464;2023-11-19T00:42:56;3.70;;;2.00;;
82705;SDS011;72428;41.978;21.464;2023-11-19T00:45:22;3.97;;;3.15;;
82705;SDS011;72428;41.978;21.464;2023-11-19T00:47:48;2.88;;;2.35;;
82705;SDS011;72428;41.978;21.464;2023-11-19T00:50:15;2.53;;;1.85;;
82705;SDS011;72428;41.978;21.464;2023-11-19T00:52:41;3.03;;;2.10;;
82705;SDS011;72428;41.978;21.464;2023-11-19T00:55:07;3.40;;;2.55;;
82705;SDS011;72428;41.978;21.464;2023-11-19T00:57:33;4.60;;;2.45;;
82705;SDS011;72428;41.978;21.464;2023-11-19T01:00:00;5.45;;;3.33;;
82705;SDS011;72428;41.978;21.464;2023-11-19T01:02:27;3.10;;;1.85;;
82705;SDS011;72428;41.978;21.464;2023-11-19T01:04:53;4.50;;;3.28;;
82705;SDS011;72428;41.978;21.464;2023-11-19T01:07:20;3.90;;;2.42;;
82705;SDS011;72428;41.978;21.464;2023-11-19T01:09:47;4.55;;;2.65;;
82705;SDS011;72428;41.978;21.464;2023-11-19T01:12:13;4.85;;;3.60;;
82705;SDS011;72428;41.978;21.464;2023-11-19T01:14:39;4.53;;;2.45;;
82705;SDS011;72428;41.978;21.464;2023-11-19T01:17:05;4.40;;;2.83;;
82705;SDS011;72428;41.978;21.464;2023-11-19T01:19:31;3.17;;;2.10;;
82705;SDS011;72428;41.978;21.464;2023-11-19T01:21:57;3.35;;;2.13;;
82705;SDS011;72428;41.978;21.464;2023-11-19T01:24:23;4.10;;;2.47;;
82705;SDS011;72428;41.978;21.464;2023-11-19T01:26:50;4.78;;;3.80;;
82705;SDS011;72428;41.978;21.464;2023-11-19T01:29:16;4.57;;;2.60;;
82705;SDS011;72428;41.978;21.464;2023-11-19T01:31:43;5.32;;;3.47;;
82705;SDS011;72428;41.978;21.464;2023-11-19T01:34:09;5.72;;;3.00;;
82705;SDS011;72428;41.978;21.464;2023-11-19T01:36:36;5.22;;;2.97;;
82705;SDS011;72428;41.978;21.464;2023-11-19T01:39:02;6.03;;;3.85;;
82705;SDS011;72428;41.978;21.464;2023-11-19T01:41:35;5.10;;;2.65;;
82705;SDS011;72428;41.978;21.464;2023-11-19T01:44:01;4.47;;;2.50;;
82705;SDS011;72428;41.978;21.464;2023-11-19T01:46:27;3.40;;;2.20;;
82705;SDS011;72428;41.978;21.464;2023-11-19T01:48:54;5.68;;;2.97;;
82705;SDS011;72428;41.978;21.464;2023-11-19T01:51:20;2.65;;;2.13;;
82705;SDS011;72428;41.978;21.464;2023-11-19T01:53:47;4.72;;;2.90;;
82705;SDS011;72428;41.978;21.464;2023-11-19T01:56:14;4.15;;;2.47;;
82705;SDS011;72428;41.978;21.464;2023-11-19T01:58:41;7.35;;;4.25;;
82705;SDS011;72428;41.978;21.464;2023-11-19T02:01:07;5.78;;;2.60;;
82705;SDS011;72428;41.978;21.464;2023-11-19T02:03:33;5.32;;;3.25;;
82705;SDS011;72428;41.978;21.464;2023-11-19T02:06:00;5.22;;;2.55;;
82705;SDS011;72428;41.978;21.464;2023-11-19T02:08:26;4.60;;;3.00;;
82705;SDS011;72428;41.978;21.464;2023-11-19T02:10:52;8.60;;;3.75;;
82705;SDS011;72428;41.978;21.464;2023-11-19T02:13:22;5.38;;;2.63;;
82705;SDS011;72428;41.978;21.464;2023-11-19T02:15:48;4.78;;;2.88;;
82705;SDS011;72428;41.978;21.464;2023-11-19T02:18:21;5.55;;;4.13;;
82705;SDS011;72428;41.978;21.464;2023-11-19T02:20:48;8.45;;;3.03;;
82705;SDS011;72428;41.978;21.464;2023-11-19T02:23:14;8.77;;;3.53;;
82705;SDS011;72428;41.978;21.464;2023-11-19T02:25:40;5.28;;;3.22;;
82705;SDS011;72428;41.978;21.464;2023-11-19T02:28:07;6.45;;;4.55;;
82705;SDS011;72428;41.978;21.464;2023-11-19T02:30:37;5.40;;;3.70;;
82705;SDS011;72428;41.978;21.464;2023-11-19T02:33:03;8.13;;;3.10;;
82705;SDS011;72428;41.978;21.464;2023-11-19T02:35:31;5.05;;;2.70;;
82705;SDS011;72428;41.978;21.464;2023-11-19T02:37:58;8.38;;;2.92;;
82705;SDS011;72428;41.978;21.464;2023-11-19T02:40:25;6.72;;;3.35;;
82705;SDS011;72428;41.978;21.464;2023-11-19T02:42:54;5.75;;;3.85;;
82705;SDS011;72428;41.978;21.464;2023-11-19T02:45:22;4.50;;;2.83;;
82705;SDS011;72428;41.978;21.464;2023-11-19T02:47:48;5.32;;;4.22;;
82705;SDS011;72428;41.978;21.464;2023-11-19T02:50:14;5.32;;;2.92;;
82705;SDS011;72428;41.978;21.464;2023-11-19T02:52:41;5.47;;;2.60;;
82705;SDS011;72428;41.978;21.464;2023-11-19T02:55:07;5.25;;;2.67;;
82705;SDS011;72428;41.978;21.464;2023-11-19T02:57:40;6.22;;;2.50;;
82705;SDS011;72428;41.978;21.464;2023-11-19T03:00:20;7.40;;;3.22;;
82705;SDS011;72428;41.978;21.464;2023-11-19T03:02:56;5.95;;;3.85;;
82705;SDS011;72428;41.978;21.464;2023-11-19T03:05:30;5.30;;;3.03;;
82705;SDS011;72428;41.978;21.464;2023-11-19T03:07:56;3.92;;;2.63;;
82705;SDS011;72428;41.978;21.464;2023-11-19T03:10:22;6.60;;;2.38;;
82705;SDS011;72428;41.978;21.464;2023-11-19T03:12:49;5.57;;;3.97;;
82705;SDS011;72428;41.978;21.464;2023-11-19T03:15:15;4.22;;;2.60;;
82705;SDS011;72428;41.978;21.464;2023-11-19T03:17:41;3.50;;;2.67;;
82705;SDS011;72428;41.978;21.464;2023-11-19T03:20:08;6.03;;;3.22;;
82705;SDS011;72428;41.978;21.464;2023-11-19T03:22:38;5.45;;;3.80;;
82705;SDS011;72428;41.978;21.464;2023-11-19T03:25:04;5.32;;;3.55;;
82705;SDS011;72428;41.978;21.464;2023-11-19T03:27:33;4.78;;;2.95;;
82705;SDS011;72428;41.978;21.464;2023-11-19T03:30:00;5.72;;;4.30;;
82705;SDS011;72428;41.978;21.464;2023-11-19T03:32:26;5.28;;;2.60;;
82705;SDS011;72428;41.978;21.464;2023-11-19T03:34:52;5.88;;;2.78;;
82705;SDS011;72428;41.978;21.464;2023-11-19T03:37:19;9.43;;;4.75;;
82705;SDS011;72428;41.978;21.464;2023-11-19T03:39:45;5.68;;;2.92;;
82705;SDS011;72428;41.978;21.464;2023-11-19T03:42:11;4.82;;;3.20;;
82705;SDS011;72428;41.978;21.464;2023-11-19T03:44:38;4.63;;;3.60;;
82705;SDS011;72428;41.978;21.464;2023-11-19T03:47:04;5.55;;;3.97;;
82705;SDS011;72428;41.978;21.464;2023-11-19T03:49:31;4.82;;;3.15;;
82705;SDS011;72428;41.978;21.464;2023-11-19T03:51:57;6.80;;;4.65;;
82705;SDS011;72428;41.978;21.464;2023-11-19T03:54:23;3.90;;;3.08;;
82705;SDS011;72428;41.978;21.464;2023-11-19T03:56:49;5.32;;;3.92;;
82705;SDS011;72428;41.978;21.464;2023-11-19T03:59:16;3.42;;;2.30;;
82705;SDS011;72428;41.978;21.464;2023-11-19T04:01:42;4.15;;;2.65;;
82705;SDS011;72428;41.978;21.464;2023-11-19T04:04:08;4.93;;;3.03;;
82705;SDS011;72428;41.978;21.464;2023-11-19T04:06:34;6.20;;;4.38;;
82705;SDS011;72428;41.978;21.464;2023-11-19T04:09:00;5.25;;;4.15;;
82705;SDS011;72428;41.978;21.464;2023-11-19T04:11:26;5.50;;;4.72;;
82705;SDS011;72428;41.978;21.464;2023-11-19T04:13:52;4.93;;;4.05;;
82705;SDS011;72428;41.978;21.464;2023-11-19T04:16:18;3.90;;;3.22;;
82705;SDS011;72428;41.978;21.464;2023-11-19T04:18:45;3.03;;;2.10;;
82705;SDS011;72428;41.978;21.464;2023-11-19T04:21:11;6.07;;;3.65;;
82705;SDS011;72428;41.978;21.464;2023-11-19T04:23:37;5.38;;;3.55;;
82705;SDS011;72428;41.978;21.464;2023-11-19T04:26:03;3.55;;;2.45;;
82705;SDS011;72428;41.978;21.464;2023-11-19T04:28:30;5.85;;;3.88;;
82705;SDS011;72428;41.978;21.464;2023-11-19T04:30:56;4.40;;;3.28;;
82705;SDS011;72428;41.978;21.464;2023-11-19T04:33:22;5.20;;;4.22;;
82705;SDS011;72428;41.978;21.464;2023-11-19T04:35:48;5.30;;;3.58;;
82705;SDS011;72428;41.978;21.464;2023-11-19T04:38:14;4.13;;;2.97;;
82705;SDS011;72428;41.978;21.464;2023-11-19T04:40:40;7.93;;;3.80;;
82705;SDS011;72428;41.978;21.464;2023-11-19T04:43:07;4.55;;;2.90;;
82705;SDS011;72428;41.978;21.464;2023-11-19T04:45:33;3.60;;;2.75;;
82705;SDS011;72428;41.978;21.464;2023-11-19T04:47:59;3.90;;;2.42;;
82705;SDS011;72428;41.978;21.464;2023-11-19T04:50:25;4.35;;;3.40;;
82705;SDS011;72428;41.978;21.464;2023-11-19T04:52:52;4.07;;;3.20;;
82705;SDS011;72428;41.978;21.464;2023-11-19T04:55:19;4.03;;;2.75;;
82705;SDS011;72428;41.978;21.464;2023-11-19T04:57:45;5.22;;;4.13;;
82705;SDS011;72428;41.978;21.464;2023-11-19T05:00:11;4.15;;;2.72;;
82705;SDS011;72428;41.978;21.464;2023-11-19T05:02:37;3.13;;;2.60;;
82705;SDS011;72428;41.978;21.464;2023-11-19T05:05:03;4.93;;;3.83;;
82705;SDS011;72428;41.978;21.464;2023-11-19T05:07:30;4.00;;;3.25;;
82705;SDS011;72428;41.978;21.464;2023-11-19T05:09:56;5.00;;;3.83;;
82705;SDS011;72428;41.978;21.464;2023-11-19T05:12:23;5.32;;;4.18;;
82705;SDS011;72428;41.978;21.464;2023-11-19T05:14:49;5.38;;;3.60;;
82705;SDS011;72428;41.978;21.464;2023-11-19T05:17:18;4.03;;;2.40;;
82705;SDS011;72428;41.978;21.464;2023-11-19T05:19:45;4.50;;;3.13;;
82705;SDS011;72428;41.978;21.464;2023-11-19T05:22:11;7.00;;;2.80;;
82705;SDS011;72428;41.978;21.464;2023-11-19T05:24:38;5.82;;;4.72;;
82705;SDS011;72428;41.978;21.464;2023-11-19T05:27:05;4.97;;;4.43;;
82705;SDS011;72428;41.978;21.464;2023-11-19T05:29:32;5.40;;;3.42;;
82705;SDS011;72428;41.978;21.464;2023-11-19T05:31:58;5.63;;;3.63;;
82705;SDS011;72428;41.978;21.464;2023-11-19T05:34:24;5.82;;;4.00;;
82705;SDS011;72428;41.978;21.464;2023-11-19T05:36:50;5.53;;;4.47;;
82705;SDS011;72428;41.978;21.464;2023-11-19T05:39:16;5.70;;;4.72;;
82705;SDS011;72428;41.978;21.464;2023-11-19T05:41:46;5.78;;;4.30;;
82705;SDS011;72428;41.978;21.464;2023-11-19T05:44:12;5.85;;;4.18;;
82705;SDS011;72428;41.978;21.464;2023-11-19T05:46:38;5.65;;;4.18;;
82705;SDS011;72428;41.978;21.464;2023-11-19T05:49:07;5.57;;;3.10;;
82705;SDS011;72428;41.978;21.464;2023-11-19T05:51:37;6.13;;;4.80;;
82705;SDS011;72428;41.978;21.464;2023-11-19T05:54:04;6.32;;;3.92;;
82705;SDS011;72428;41.978;21.464;2023-11-19T05:56:31;6.32;;;3.15;;
82705;SDS011;72428;41.978;21.464;2023-11-19T05:58:58;6.60;;;4.45;;
82705;SDS011;72428;41.978;21.464;2023-11-19T06:01:31;6.03;;;3.22;;
82705;SDS011;72428;41.978;21.464;2023-11-19T06:03:57;5.97;;;3.47;;
82705;SDS011;72428;41.978;21.464;2023-11-19T06:06:23;5.55;;;2.80;;
82705;SDS011;72428;41.978;21.464;2023-11-19T06:08:49;5.85;;;3.33;;
82705;SDS011;72428;41.978;21.464;2023-11-19T06:11:16;6.82;;;4.32;;
82705;SDS011;72428;41.978;21.464;2023-11-19T06:13:46;5.78;;;4.85;;
82705;SDS011;72428;41.978;21.464;2023-11-19T06:16:13;6.07;;;3.13;;
82705;SDS011;72428;41.978;21.464;2023-11-19T06:18:39;5.85;;;3.22;;
82705;SDS011;72428;41.978;21.464;2023-11-19T06:21:06;5.78;;;4.13;;
82705;SDS011;72428;41.978;21.464;2023-11-19T06:23:32;5.05;;;3.15;;
82705;SDS011;72428;41.978;21.464;2023-11-19T06:25:58;6.15;;;4.07;;
82705;SDS011;72428;41.978;21.464;2023-11-19T06:28:24;5.03;;;3.20;;
82705;SDS011;72428;41.978;21.464;2023-11-19T06:30:50;11.25;;;4.25;;
82705;SDS011;72428;41.978;21.464;2023-11-19T06:33:17;4.97;;;4.22;;
82705;SDS011;72428;41.978;21.464;2023-11-19T06:35:43;5.55;;;3.30;;
82705;SDS011;72428;41.978;21.464;2023-11-19T06:38:10;4.88;;;3.53;;
82705;SDS011;72428;41.978;21.464;2023-11-19T06:40:36;4.82;;;3.42;;
82705;SDS011;72428;41.978;21.464;2023-11-19T06:43:02;6.40;;;4.43;;
82705;SDS011;72428;41.978;21.464;2023-11-19T06:45:29;4.55;;;2.70;;
82705;SDS011;72428;41.978;21.464;2023-11-19T06:47:55;6.15;;;4.40;;
82705;SDS011;72428;41.978;21.464;2023-11-19T06:50:21;5.45;;;2.63;;
82705;SDS011;72428;41.978;21.464;2023-11-19T06:52:48;6.25;;;4.18;;
82705;SDS011;72428;41.978;21.464;2023-11-19T06:55:15;7.07;;;3.38;;
82705;SDS011;72428;41.978;21.464;2023-11-19T06:57:41;5.88;;;4.38;;
82705;SDS011;72428;41.978;21.464;2023-11-19T07:00:07;4.80;;;2.58;;
82705;SDS011;72428;41.978;21.464;2023-11-19T07:02:34;5.25;;;4.22;;
82705;SDS011;72428;41.978;21.464;2023-11-19T07:05:00;5.38;;;4.10;;
82705;SDS011;72428;41.978;21.464;2023-11-19T07:07:26;5.07;;;3.75;;
82705;SDS011;72428;41.978;21.464;2023-11-19T07:09:52;5.75;;;3.15;;
82705;SDS011;72428;41.978;21.464;2023-11-19T07:12:18;7.15;;;4.70;;
82705;SDS011;72428;41.978;21.464;2023-11-19T07:14:44;5.47;;;4.00;;
82705;SDS011;72428;41.978;21.464;2023-11-19T07:17:11;5.15;;;4.30;;
82705;SDS011;72428;41.978;21.464;2023-11-19T07:19:37;5.05;;;2.80;;
82705;SDS011;72428;41.978;21.464;2023-11-19T07:22:03;3.15;;;2.03;;
82705;SDS011;72428;41.978;21.464;2023-11-19T07:24:31;8.52;;;3.60;;
82705;SDS011;72428;41.978;21.464;2023-11-19T07:26:57;6.28;;;3.72;;
82705;SDS011;72428;41.978;21.464;2023-11-19T07:29:23;6.65;;;4.43;;
82705;SDS011;72428;41.978;21.464;2023-11-19T07:31:49;6.50;;;3.53;;
82705;SDS011;72428;41.978;21.464;2023-11-19T07:34:16;6.10;;;3.72;;
82705;SDS011;72428;41.978;21.464;2023-11-19T07:36:42;4.50;;;2.63;;
82705;SDS011;72428;41.978;21.464;2023-11-19T07:39:08;5.50;;;3.08;;
82705;SDS011;72428;41.978;21.464;2023-11-19T07:41:34;5.15;;;3.20;;
82705;SDS011;72428;41.978;21.464;2023-11-19T07:44:00;6.65;;;3.92;;
82705;SDS011;72428;41.978;21.464;2023-11-19T07:46:26;4.45;;;3.58;;
82705;SDS011;72428;41.978;21.464;2023-11-19T07:48:52;6.63;;;4.20;;
82705;SDS011;72428;41.978;21.464;2023-11-19T07:51:18;5.40;;;3.33;;
82705;SDS011;72428;41.978;21.464;2023-11-19T07:53:44;7.75;;;4.32;;
82705;SDS011;72428;41.978;21.464;2023-11-19T07:56:11;6.82;;;5.13;;
82705;SDS011;72428;41.978;21.464;2023-11-19T07:58:37;7.75;;;3.72;;
82705;SDS011;72428;41.978;21.464;2023-11-19T08:01:03;4.93;;;2.75;;
82705;SDS011;72428;41.978;21.464;2023-11-19T08:03:29;5.07;;;3.05;;
82705;SDS011;72428;41.978;21.464;2023-11-19T08:05:55;6.20;;;4.75;;
82705;SDS011;72428;41.978;21.464;2023-11-19T08:08:24;5.43;;;3.65;;
82705;SDS011;72428;41.978;21.464;2023-11-19T08:10:50;7.95;;;3.78;;
82705;SDS011;72428;41.978;21.464;2023-11-19T08:13:18;5.35;;;3.10;;
82705;SDS011;72428;41.978;21.464;2023-11-19T08:15:45;5.68;;;3.08;;
82705;SDS011;72428;41.978;21.464;2023-11-19T08:18:12;4.82;;;2.60;;
82705;SDS011;72428;41.978;21.464;2023-11-19T08:20:38;5.28;;;2.97;;
82705;SDS011;72428;41.978;21.464;2023-11-19T08:23:04;4.60;;;2.72;;
82705;SDS011;72428;41.978;21.464;2023-11-19T08:25:30;5.95;;;3.42;;
82705;SDS011;72428;41.978;21.464;2023-11-19T08:27:58;5.47;;;2.92;;
82705;SDS011;72428;41.978;21.464;2023-11-19T08:30:25;5.75;;;3.67;;
82705;SDS011;72428;41.978;21.464;2023-11-19T08:32:51;4.68;;;2.80;;
82705;SDS011;72428;41.978;21.464;2023-11-19T08:35:18;6.53;;;2.72;;
82705;SDS011;72428;41.978;21.464;2023-11-19T08:37:44;6.10;;;3.20;;
82705;SDS011;72428;41.978;21.464;2023-11-19T08:40:11;4.93;;;2.83;;
82705;SDS011;72428;41.978;21.464;2023-11-19T08:42:39;5.35;;;2.92;;
82705;SDS011;72428;41.978;21.464;2023-11-19T08:45:06;5.35;;;4.22;;
82705;SDS011;72428;41.978;21.464;2023-11-19T08:47:33;6.78;;;3.28;;
82705;SDS011;72428;41.978;21.464;2023-11-19T08:49:59;7.35;;;4.03;;
82705;SDS011;72428;41.978;21.464;2023-11-19T08:52:25;4.68;;;2.63;;
82705;SDS011;72428;41.978;21.464;2023-11-19T08:54:51;5.70;;;3.03;;
82705;SDS011;72428;41.978;21.464;2023-11-19T08:57:17;4.78;;;3.17;;
82705;SDS011;72428;41.978;21.464;2023-11-19T08:59:44;4.88;;;3.08;;
82705;SDS011;72428;41.978;21.464;2023-11-19T09:02:11;5.03;;;4.20;;
82705;SDS011;72428;41.978;21.464;2023-11-19T09:04:37;5.78;;;2.90;;
82705;SDS011;72428;41.978;21.464;2023-11-19T09:07:03;4.75;;;3.50;;
82705;SDS011;72428;41.978;21.464;2023-11-19T09:09:29;5.57;;;3.50;;
82705;SDS011;72428;41.978;21.464;2023-11-19T09:11:55;7.30;;;3.33;;
82705;SDS011;72428;41.978;21.464;2023-11-19T09:14:22;5.93;;;3.70;;
82705;SDS011;72428;41.978;21.464;2023-11-19T09:16:50;3.58;;;2.78;;
82705;SDS011;72428;41.978;21.464;2023-11-19T09:19:16;4.75;;;2.60;;
82705;SDS011;72428;41.978;21.464;2023-11-19T09:21:43;3.28;;;2.00;;
82705;SDS011;72428;41.978;21.464;2023-11-19T09:24:09;5.57;;;3.22;;
82705;SDS011;72428;41.978;21.464;2023-11-19T09:26:35;4.32;;;2.45;;
82705;SDS011;72428;41.978;21.464;2023-11-19T09:29:01;5.40;;;2.83;;
82705;SDS011;72428;41.978;21.464;2023-11-19T09:31:28;5.70;;;2.90;;
82705;SDS011;72428;41.978;21.464;2023-11-19T09:33:54;5.05;;;3.95;;
82705;SDS011;72428;41.978;21.464;2023-11-19T09:36:20;5.70;;;3.22;;
82705;SDS011;72428;41.978;21.464;2023-11-19T09:38:46;6.38;;;4.40;;
82705;SDS011;72428;41.978;21.464;2023-11-19T09:41:12;5.35;;;2.95;;
82705;SDS011;72428;41.978;21.464;2023-11-19T09:43:41;5.63;;;3.58;;
82705;SDS011;72428;41.978;21.464;2023-11-19T09:46:12;6.55;;;3.80;;
82705;SDS011;72428;41.978;21.464;2023-11-19T09:51:08;4.18;;;2.55;;
82705;SDS011;72428;41.978;21.464;2023-11-19T09:53:34;6.75;;;4.47;;
82705;SDS011;72428;41.978;21.464;2023-11-19T09:56:04;6.97;;;4.35;;
82705;SDS011;72428;41.978;21.464;2023-11-19T09:58:31;8.75;;;4.63;;
82705;SDS011;72428;41.978;21.464;2023-11-19T10:00:58;19.17;;;10.05;;
82705;SDS011;72428;41.978;21.464;2023-11-19T10:03:25;5.35;;;2.80;;
82705;SDS011;72428;41.978;21.464;2023-11-19T10:05:53;5.95;;;3.17;;
82705;SDS011;72428;41.978;21.464;2023-11-19T10:08:21;6.78;;;3.15;;
82705;SDS011;72428;41.978;21.464;2023-11-19T10:10:47;4.97;;;3.60;;
82705;SDS011;72428;41.978;21.464;2023-11-19T10:13:14;6.32;;;2.92;;
82705;SDS011;72428;41.978;21.464;2023-11-19T10:15:40;5.93;;;2.85;;
82705;SDS011;72428;41.978;21.464;2023-11-19T10:18:07;5.30;;;3.05;;
82705;SDS011;72428;41.978;21.464;2023-11-19T10:20:36;5.65;;;2.80;;
82705;SDS011;72428;41.978;21.464;2023-11-19T10:23:02;4.22;;;2.63;;
82705;SDS011;72428;41.978;21.464;2023-11-19T10:25:29;6.43;;;2.67;;
82705;SDS011;72428;41.978;21.464;2023-11-19T10:27:55;4.03;;;2.05;;
82705;SDS011;72428;41.978;21.464;2023-11-19T10:30:25;4.60;;;2.42;;
82705;SDS011;72428;41.978;21.464;2023-11-19T10:33:13;5.45;;;3.08;;
82705;SDS011;72428;41.978;21.464;2023-11-19T10:35:52;5.25;;;2.78;;
82705;SDS011;72428;41.978;21.464;2023-11-19T10:38:18;5.20;;;2.75;;
82705;SDS011;72428;41.978;21.464;2023-11-19T10:40:45;7.20;;;2.95;;
82705;SDS011;72428;41.978;21.464;2023-11-19T10:43:11;3.80;;;2.38;;
82705;SDS011;72428;41.978;21.464;2023-11-19T10:45:38;6.25;;;2.15;;
82705;SDS011;72428;41.978;21.464;2023-11-19T10:48:04;5.57;;;2.60;;
82705;SDS011;72428;41.978;21.464;2023-11-19T10:50:32;6.38;;;2.97;;
82705;SDS011;72428;41.978;21.464;2023-11-19T10:52:59;5.00;;;2.60;;
82705;SDS011;72428;41.978;21.464;2023-11-19T10:55:29;4.65;;;2.42;;
82705;SDS011;72428;41.978;21.464;2023-11-19T10:57:59;4.45;;;2.80;;
82705;SDS011;72428;41.978;21.464;2023-11-19T11:00:25;5.72;;;2.42;;
82705;SDS011;72428;41.978;21.464;2023-11-19T11:02:54;3.58;;;1.75;;
82705;SDS011;72428;41.978;21.464;2023-11-19T11:05:21;5.07;;;2.90;;
82705;SDS011;72428;41.978;21.464;2023-11-19T11:07:47;3.95;;;2.20;;
82705;SDS011;72428;41.978;21.464;2023-11-19T11:10:16;4.80;;;2.55;;
82705;SDS011;72428;41.978;21.464;2023-11-19T11:12:42;5.60;;;2.70;;
82705;SDS011;72428;41.978;21.464;2023-11-19T11:15:10;4.68;;;2.17;;
82705;SDS011;72428;41.978;21.464;2023-11-19T11:17:40;6.85;;;2.50;;
82705;SDS011;72428;41.978;21.464;2023-11-19T11:20:07;4.68;;;2.47;;
82705;SDS011;72428;41.978;21.464;2023-11-19T11:22:36;5.68;;;2.63;;
82705;SDS011;72428;41.978;21.464;2023-11-19T11:25:18;3.63;;;1.88;;
82705;SDS011;72428;41.978;21.464;2023-11-19T11:35:55;5.55;;;2.58;;
82705;SDS011;72428;41.978;21.464;2023-11-19T11:38:26;8.40;;;4.18;;
82705;SDS011;72428;41.978;21.464;2023-11-19T11:43:51;6.68;;;3.30;;
82705;SDS011;72428;41.978;21.464;2023-11-19T11:49:04;6.80;;;3.10;;
82705;SDS011;72428;41.978;21.464;2023-11-19T11:54:09;4.70;;;2.45;;
82705;SDS011;72428;41.978;21.464;2023-11-19T11:56:38;5.65;;;2.75;;
82705;SDS011;72428;41.978;21.464;2023-11-19T11:59:08;6.53;;;2.35;;
82705;SDS011;72428;41.978;21.464;2023-11-19T12:01:35;6.35;;;3.08;;
82705;SDS011;72428;41.978;21.464;2023-11-19T12:04:01;7.15;;;4.10;;
82705;SDS011;72428;41.978;21.464;2023-11-19T12:06:27;6.63;;;3.30;;
82705;SDS011;72428;41.978;21.464;2023-11-19T12:08:58;6.30;;;4.43;;
82705;SDS011;72428;41.978;21.464;2023-11-19T12:11:25;7.57;;;3.42;;
82705;SDS011;72428;41.978;21.464;2023-11-19T12:13:54;6.45;;;3.92;;
82705;SDS011;72428;41.978;21.464;2023-11-19T12:16:21;7.22;;;4.20;;
82705;SDS011;72428;41.978;21.464;2023-11-19T12:18:47;6.00;;;2.83;;
82705;SDS011;72428;41.978;21.464;2023-11-19T12:21:27;6.15;;;3.20;;
82705;SDS011;72428;41.978;21.464;2023-11-19T12:23:53;8.05;;;3.40;;
82705;SDS011;72428;41.978;21.464;2023-11-19T12:26:32;5.90;;;3.20;;
82705;SDS011;72428;41.978;21.464;2023-11-19T12:28:59;6.65;;;3.70;;
82705;SDS011;72428;41.978;21.464;2023-11-19T12:31:26;6.50;;;3.95;;
82705;SDS011;72428;41.978;21.464;2023-11-19T12:33:52;5.82;;;3.83;;
82705;SDS011;72428;41.978;21.464;2023-11-19T12:36:18;6.72;;;3.35;;
82705;SDS011;72428;41.978;21.464;2023-11-19T12:38:44;6.28;;;3.13;;
82705;SDS011;72428;41.978;21.464;2023-11-19T12:41:11;6.70;;;3.33;;
82705;SDS011;72428;41.978;21.464;2023-11-19T12:43:38;7.25;;;4.00;;
82705;SDS011;72428;41.978;21.464;2023-11-19T12:46:17;6.65;;;3.25;;
82705;SDS011;72428;41.978;21.464;2023-11-19T12:48:44;6.20;;;3.65;;
82705;SDS011;72428;41.978;21.464;2023-11-19T12:51:10;7.95;;;3.50;;
82705;SDS011;72428;41.978;21.464;2023-11-19T12:53:52;6.28;;;3.05;;
82705;SDS011;72428;41.978;21.464;2023-11-19T12:56:23;5.80;;;3.17;;
82705;SDS011;72428;41.978;21.464;2023-11-19T12:58:49;6.38;;;3.13;;
82705;SDS011;72428;41.978;21.464;2023-11-19T13:01:19;9.68;;;3.10;;
82705;SDS011;72428;41.978;21.464;2023-11-19T13:03:46;8.48;;;4.28;;
82705;SDS011;72428;41.978;21.464;2023-11-19T13:06:13;7.03;;;3.95;;
82705;SDS011;72428;41.978;21.464;2023-11-19T13:08:44;7.93;;;4.18;;
82705;SDS011;72428;41.978;21.464;2023-11-19T13:11:11;7.65;;;3.42;;
82705;SDS011;72428;41.978;21.464;2023-11-19T13:16:21;6.80;;;3.50;;
82705;SDS011;72428;41.978;21.464;2023-11-19T13:18:48;6.80;;;3.83;;
82705;SDS011;72428;41.978;21.464;2023-11-19T13:21:14;6.68;;;3.35;;
82705;SDS011;72428;41.978;21.464;2023-11-19T13:23:40;6.88;;;3.75;;
82705;SDS011;72428;41.978;21.464;2023-11-19T13:26:06;7.40;;;4.15;;
82705;SDS011;72428;41.978;21.464;2023-11-19T13:28:32;8.02;;;3.65;;
82705;SDS011;72428;41.978;21.464;2023-11-19T13:30:58;10.30;;;4.47;;
82705;SDS011;72428;41.978;21.464;2023-11-19T13:33:24;6.00;;;3.38;;
82705;SDS011;72428;41.978;21.464;2023-11-19T13:35:51;7.47;;;4.45;;
82705;SDS011;72428;41.978;21.464;2023-11-19T13:38:18;5.85;;;3.72;;
82705;SDS011;72428;41.978;21.464;2023-11-19T13:40:44;6.35;;;3.67;;
82705;SDS011;72428;41.978;21.464;2023-11-19T13:43:10;10.57;;;4.38;;
82705;SDS011;72428;41.978;21.464;2023-11-19T13:45:36;7.28;;;4.00;;
82705;SDS011;72428;41.978;21.464;2023-11-19T13:48:02;7.72;;;3.90;;
82705;SDS011;72428;41.978;21.464;2023-11-19T13:50:29;7.88;;;4.03;;
82705;SDS011;72428;41.978;21.464;2023-11-19T13:52:55;7.18;;;4.78;;
82705;SDS011;72428;41.978;21.464;2023-11-19T13:55:21;8.02;;;3.75;;
82705;SDS011;72428;41.978;21.464;2023-11-19T13:57:47;10.35;;;4.30;;
82705;SDS011;72428;41.978;21.464;2023-11-19T14:00:14;7.38;;;3.85;;
82705;SDS011;72428;41.978;21.464;2023-11-19T14:02:44;8.82;;;3.58;;
82705;SDS011;72428;41.978;21.464;2023-11-19T14:05:10;6.72;;;4.15;;
82705;SDS011;72428;41.978;21.464;2023-11-19T14:07:37;9.25;;;4.45;;
82705;SDS011;72428;41.978;21.464;2023-11-19T14:10:03;7.38;;;4.30;;
82705;SDS011;72428;41.978;21.464;2023-11-19T14:12:31;11.55;;;5.20;;
82705;SDS011;72428;41.978;21.464;2023-11-19T14:14:57;8.82;;;6.10;;
82705;SDS011;72428;41.978;21.464;2023-11-19T14:17:24;9.50;;;5.35;;
82705;SDS011;72428;41.978;21.464;2023-11-19T14:19:51;9.93;;;4.75;;
82705;SDS011;72428;41.978;21.464;2023-11-19T14:22:17;11.93;;;7.35;;
82705;SDS011;72428;41.978;21.464;2023-11-19T14:24:43;16.33;;;8.20;;
82705;SDS011;72428;41.978;21.464;2023-11-19T14:27:09;13.57;;;7.63;;
82705;SDS011;72428;41.978;21.464;2023-11-19T14:29:36;16.17;;;7.80;;
82705;SDS011;72428;41.978;21.464;2023-11-19T14:32:02;15.23;;;8.07;;
82705;SDS011;72428;41.978;21.464;2023-11-19T14:34:31;14.00;;;8.65;;
82705;SDS011;72428;41.978;21.464;2023-11-19T14:36:57;14.50;;;8.63;;
82705;SDS011;72428;41.978;21.464;2023-11-19T14:39:25;15.25;;;8.65;;
82705;SDS011;72428;41.978;21.464;2023-11-19T14:41:51;15.05;;;8.18;;
82705;SDS011;72428;41.978;21.464;2023-11-19T14:44:18;19.58;;;9.43;;
82705;SDS011;72428;41.978;21.464;2023-11-19T14:46:45;13.68;;;8.25;;
82705;SDS011;72428;41.978;21.464;2023-11-19T14:49:12;15.90;;;8.60;;
82705;SDS011;72428;41.978;21.464;2023-11-19T14:51:39;13.75;;;7.50;;
82705;SDS011;72428;41.978;21.464;2023-11-19T14:54:05;13.35;;;7.80;;